Time;durP1;ratioP1;P1;durP2;ratioP2;P2;SDS_P1;SDS_P2;PMS_P1;PMS_P2;Temp;Humidity;BMP_temperature;BMP_pressure;BME280_temperature;BME280_humidity;BME280_pressure;Samples;Min_cycle;Max_cycle;Signal;HPM_P1;HPM_P2
2022/05/27 00:00:54;;;;;;;10.48;3.95;;;12.60;99.90;;;;;;5032102;28;20085;-81
2022/05/27 00:03:20;;;;;;;6.60;2.63;;;12.60;99.90;;;;;;5031177;28;20132;-82
2022/05/27 00:05:51;;;;;;;11.88;3.80;;;12.80;99.90;;;;;;5031990;28;20130;-81
2022/05/27 00:08:17;;;;;;;9.20;3.63;;;12.70;99.90;;;;;;5031852;28;20556;-81
2022/05/27 00:10:43;;;;;;;17.13;4.90;;;12.70;99.90;;;;;;5032148;28;20046;-81
2022/05/27 00:13:08;;;;;;;7.97;3.28;;;12.60;99.90;;;;;;5031875;28;20075;-81
2022/05/27 00:15:34;;;;;;;7.13;3.25;;;12.70;99.90;;;;;;5032019;28;20048;-81
2022/05/27 00:18:00;;;;;;;9.25;3.20;;;12.70;99.90;;;;;;5014277;28;20049;-81
2022/05/27 00:20:26;;;;;;;10.63;3.25;;;12.60;99.90;;;;;;5031795;28;20057;-87
2022/05/27 00:22:52;;;;;;;8.00;3.15;;;12.60;99.90;;;;;;5033306;28;20061;-82
2022/05/27 00:25:19;;;;;;;10.13;3.05;;;12.60;99.90;;;;;;5035571;28;20041;-81
2022/05/27 00:27:45;;;;;;;8.38;3.92;;;12.60;99.90;;;;;;5034533;28;20045;-82
2022/05/27 00:30:11;;;;;;;6.68;3.35;;;12.50;99.90;;;;;;5018373;28;20053;-82
2022/05/27 00:32:38;;;;;;;8.05;2.78;;;12.60;99.90;;;;;;5050892;28;20045;-81
2022/05/27 00:35:04;;;;;;;6.43;3.03;;;12.60;99.90;;;;;;5034270;28;20053;-81
2022/05/27 00:37:30;;;;;;;6.90;3.50;;;12.50;99.90;;;;;;5034153;28;20128;-81
2022/05/27 00:39:56;;;;;;;14.18;4.75;;;12.50;99.90;;;;;;5035531;28;20128;-81
2022/05/27 00:42:22;;;;;;;12.88;4.13;;;12.70;99.90;;;;;;5035354;28;20049;-80
2022/05/27 00:44:48;;;;;;;10.20;3.20;;;12.60;99.90;;;;;;5035331;28;20457;-83
2022/05/27 00:47:17;;;;;;;12.43;4.85;;;12.60;99.90;;;;;;5050859;28;20084;-81
2022/05/27 00:49:48;;;;;;;9.35;4.38;;;12.60;99.90;;;;;;5033948;28;20115;-82
2022/05/27 00:52:17;;;;;;;12.50;4.60;;;12.60;99.90;;;;;;5035287;28;20045;-81
2022/05/27 00:54:44;;;;;;;7.47;3.40;;;12.60;99.90;;;;;;5035024;28;20402;-81
2022/05/27 00:57:24;;;;;;;10.30;4.75;;;12.60;99.90;;;;;;5017659;28;20041;-81
2022/05/27 01:00:12;;;;;;;9.63;4.03;;;12.60;99.90;;;;;;5035139;28;20141;-81
2022/05/27 01:02:38;;;;;;;16.55;5.13;;;12.70;99.90;;;;;;5034961;28;20053;-81
2022/05/27 01:05:07;;;;;;;11.60;5.00;;;12.60;99.90;;;;;;5050712;28;20490;-80
2022/05/27 01:07:33;;;;;;;10.90;5.40;;;12.70;99.90;;;;;;5050358;28;20049;-82
2022/05/27 01:10:01;;;;;;;11.20;4.72;;;12.70;99.90;;;;;;5033827;28;20060;-83
2022/05/27 01:12:45;;;;;;;14.85;5.65;;;12.80;99.90;;;;;;5049987;28;20061;-81
2022/05/27 01:15:34;;;;;;;18.77;5.80;;;12.70;99.90;;;;;;5033845;28;20056;-83
2022/05/27 01:18:08;;;;;;;21.08;6.53;;;12.70;99.90;;;;;;5033650;28;20414;-82
2022/05/27 01:20:52;;;;;;;15.02;5.75;;;12.70;99.90;;;;;;5033059;28;20062;-82
2022/05/27 01:23:21;;;;;;;19.95;6.57;;;12.80;99.90;;;;;;5033510;28;20464;-82
2022/05/27 01:26:18;;;;;;;16.77;6.55;;;12.70;99.90;;;;;;5033595;28;20042;-81
2022/05/27 01:28:52;;;;;;;15.73;5.65;;;12.70;99.90;;;;;;5017136;28;20045;-81
2022/05/27 01:31:30;;;;;;;17.13;6.30;;;12.70;99.90;;;;;;5034311;28;20041;-82
2022/05/27 01:34:09;;;;;;;14.98;6.22;;;12.70;99.90;;;;;;5033641;28;20085;-81
2022/05/27 01:37:01;;;;;;;22.05;7.25;;;12.70;99.90;;;;;;5034419;28;20045;-81
2022/05/27 01:39:29;;;;;;;17.15;6.05;;;12.70;99.90;;;;;;5033003;28;20046;-82
2022/05/27 01:42:02;;;;;;;17.67;5.78;;;12.80;99.90;;;;;;5033460;28;20499;-82
2022/05/27 01:44:55;;;;;;;21.42;7.35;;;12.70;99.90;;;;;;5034048;28;20122;-81
2022/05/27 01:47:48;;;;;;;18.58;6.65;;;12.80;99.90;;;;;;5013518;28;20097;-81
2022/05/27 01:50:27;;;;;;;12.52;5.68;;;12.80;99.90;;;;;;5033977;28;20124;-81
2022/05/27 01:52:57;;;;;;;17.48;7.50;;;12.70;99.90;;;;;;5033013;28;20111;-81
2022/05/27 01:55:34;;;;;;;22.70;7.30;;;12.70;99.90;;;;;;5034228;28;20092;-81
2022/05/27 01:58:20;;;;;;;16.10;6.80;;;12.70;99.90;;;;;;5033975;28;20068;-80
2022/05/27 02:00:48;;;;;;;14.35;5.28;;;12.60;99.90;;;;;;5033808;28;20096;-81
2022/05/27 02:03:41;;;;;;;19.30;7.25;;;12.60;99.90;;;;;;5033576;28;20705;-81
2022/05/27 02:06:12;;;;;;;17.33;6.68;;;12.50;99.90;;;;;;5033728;28;20504;-81
2022/05/27 02:08:46;;;;;;;21.85;6.82;;;12.50;99.90;;;;;;5032645;28;20085;-81
2022/05/27 02:11:17;;;;;;;25.35;7.50;;;12.40;99.90;;;;;;5032499;28;20088;-82
2022/05/27 02:13:54;;;;;;;28.80;8.07;;;12.40;99.90;;;;;;5033234;28;20045;-82
2022/05/27 02:16:37;;;;;;;34.10;8.63;;;12.30;99.90;;;;;;5033603;28;20075;-82
2022/05/27 02:19:13;;;;;;;22.25;6.93;;;12.30;99.90;;;;;;5033383;28;20091;-82
2022/05/27 02:21:50;;;;;;;23.38;7.30;;;12.20;99.90;;;;;;5033265;28;20418;-82
2022/05/27 02:24:36;;;;;;;17.50;6.32;;;12.10;99.90;;;;;;5048497;28;20057;-82
2022/05/27 02:27:25;;;;;;;25.45;7.32;;;12.10;99.90;;;;;;5015998;28;20132;-81
2022/05/27 02:29:54;;;;;;;23.40;7.22;;;12.00;99.90;;;;;;5048930;28;20053;-82
2022/05/27 02:32:38;;;;;;;19.52;7.32;;;12.00;99.90;;;;;;5033319;28;20124;-81
2022/05/27 02:35:11;;;;;;;21.95;6.63;;;12.10;99.90;;;;;;5048988;28;20387;-82
2022/05/27 02:37:41;;;;;;;29.73;7.68;;;12.00;99.90;;;;;;5033114;28;20056;-82
2022/05/27 02:40:15;;;;;;;18.63;6.13;;;12.00;99.90;;;;;;5048768;28;20095;-82
2022/05/27 02:43:00;;;;;;;17.30;5.82;;;11.90;99.90;;;;;;5032954;28;20050;-82
2022/05/27 02:45:42;;;;;;;23.98;6.22;;;11.90;99.90;;;;;;5031258;28;20123;-82
2022/05/27 02:48:29;;;;;;;26.83;5.90;;;11.90;99.90;;;;;;5032816;28;20491;-82
2022/05/27 02:51:11;;;;;;;30.15;7.57;;;11.80;99.90;;;;;;5015631;28;20053;-82
2022/05/27 02:54:23;;;;;;;22.13;5.85;;;11.80;99.90;;;;;;5031564;28;20219;-83
2022/05/27 02:57:07;;;;;;;;;;;11.80;99.90;;;;;;5014926;28;20057;-82
2022/05/27 02:59:35;;;;;;;18.95;6.55;;;11.70;99.90;;;;;;5030611;28;19921;-82
2022/05/27 03:02:15;;;;;;;23.52;5.90;;;11.70;99.90;;;;;;5030247;28;20046;-84
2022/05/27 03:04:47;;;;;;;21.88;5.15;;;11.60;99.90;;;;;;5030449;28;20049;-82
2022/05/27 03:07:26;;;;;;;34.25;6.65;;;11.60;99.90;;;;;;5013997;28;20054;-82
2022/05/27 03:10:02;;;;;;;24.92;5.82;;;11.60;99.90;;;;;;5030524;28;20091;-82
2022/05/27 03:13:41;;;;;;;37.20;6.72;;;11.60;99.90;;;;;;4997244;28;20061;-83
2022/05/27 03:16:15;;;;;;;20.50;4.88;;;11.60;99.90;;;;;;4955443;28;20426;-82
2022/05/27 03:18:53;;;;;;;33.10;5.80;;;11.60;99.90;;;;;;4971173;28;20386;-84
2022/05/27 03:21:34;;;;;;;25.55;5.38;;;11.60;99.90;;;;;;4971101;28;20110;-84
2022/05/27 03:24:11;;;;;;;;;;;11.70;99.90;;;;;;4955608;28;20059;-82
2022/05/27 03:27:03;;;;;;;24.90;6.03;;;11.60;99.90;;;;;;4955254;28;20364;-82
2022/05/27 03:29:37;;;;;;;16.90;4.53;;;11.90;99.90;;;;;;4955464;28;20153;-87
2022/05/27 03:32:33;;;;;;;27.23;5.38;;;11.60;99.90;;;;;;4971402;28;20120;-82
2022/05/27 03:35:27;;;;;;;20.98;4.35;;;11.70;99.90;;;;;;4971388;28;20050;-82
2022/05/27 03:38:04;;;;;;;22.67;5.00;;;11.70;99.90;;;;;;4932579;29;20058;-83
2022/05/27 03:40:38;;;;;;;31.67;6.25;;;11.80;99.90;;;;;;4917239;29;20134;-82
2022/05/27 03:43:04;;;;;;;31.55;6.10;;;11.80;99.90;;;;;;4917132;29;20060;-83
2022/05/27 03:45:30;;;;;;;19.42;4.68;;;11.90;99.90;;;;;;4932976;29;20414;-82
2022/05/27 03:47:56;;;;;;;15.75;3.88;;;11.80;99.90;;;;;;4917237;29;20048;-83
2022/05/27 03:50:24;;;;;;;21.98;4.80;;;11.90;99.90;;;;;;4956047;28;20061;-82
2022/05/27 03:52:53;;;;;;;20.33;4.72;;;11.90;99.90;;;;;;4971452;28;20043;-82
2022/05/27 03:55:23;;;;;;;20.83;4.57;;;11.90;99.90;;;;;;4955303;28;20071;-82
2022/05/27 03:57:48;;;;;;;18.02;4.50;;;12.00;99.90;;;;;;4957815;28;20050;-82
2022/05/27 04:00:16;;;;;;;19.50;4.65;;;11.90;99.90;;;;;;4975043;28;20050;-83
2022/05/27 04:02:42;;;;;;;24.13;4.28;;;11.80;99.90;;;;;;4959065;28;20051;-82
2022/05/27 04:05:10;;;;;;;18.40;3.85;;;11.80;99.90;;;;;;4974852;28;20472;-81
2022/05/27 04:07:36;;;;;;;22.08;4.50;;;11.70;99.90;;;;;;4974817;28;20055;-82
2022/05/27 04:10:03;;;;;;;31.55;4.38;;;11.70;99.90;;;;;;4974822;28;20053;-84
2022/05/27 04:12:28;;;;;;;27.35;4.03;;;11.60;99.90;;;;;;4974639;28;20051;-83
2022/05/27 04:14:54;;;;;;;23.33;4.10;;;11.70;99.90;;;;;;4999467;28;20057;-82
2022/05/27 04:17:32;;;;;;;24.33;4.78;;;11.70;99.90;;;;;;5052145;28;20095;-83
2022/05/27 04:20:08;;;;;;;25.90;4.40;;;11.70;99.90;;;;;;5034780;28;20045;-83
2022/05/27 04:22:35;;;;;;;28.42;3.78;;;11.70;99.90;;;;;;5036095;28;20057;-82
2022/05/27 04:25:01;;;;;;;23.52;3.83;;;11.70;99.90;;;;;;5035792;28;20053;-84
2022/05/27 04:27:27;;;;;;;29.67;3.67;;;11.80;99.90;;;;;;5034598;28;20046;-82
2022/05/27 04:29:53;;;;;;;19.92;3.60;;;11.80;99.90;;;;;;5035813;28;20399;-82
2022/05/27 04:32:25;;;;;;;32.65;4.13;;;11.80;99.90;;;;;;5035266;28;20088;-84
2022/05/27 04:34:51;;;;;;;;;;;11.90;99.90;;;;;;5036023;28;20049;-82
2022/05/27 04:37:17;;;;;;;18.63;4.47;;;11.80;99.90;;;;;;5034542;28;19921;-82
2022/05/27 04:39:43;;;;;;;18.05;3.35;;;11.90;99.90;;;;;;5035002;28;20048;-81
2022/05/27 04:42:09;;;;;;;26.30;4.13;;;11.90;99.90;;;;;;5033996;28;20042;-82
2022/05/27 04:44:35;;;;;;;27.45;3.92;;;11.90;99.90;;;;;;5034422;28;20471;-83
2022/05/27 04:47:01;;;;;;;18.13;3.47;;;11.90;99.90;;;;;;5033982;28;20128;-83
2022/05/27 04:52:11;;;;;;;17.88;3.47;;;11.90;99.90;;;;;;5034271;28;20056;-82
2022/05/27 04:54:37;;;;;;;16.55;3.33;;;11.90;99.90;;;;;;5035435;28;20490;-82
2022/05/27 04:57:03;;;;;;;27.42;3.85;;;11.80;99.90;;;;;;5035241;28;20040;-82
2022/05/27 04:59:28;;;;;;;16.92;3.53;;;11.80;99.90;;;;;;5035020;28;20041;-83
2022/05/27 05:01:54;;;;;;;22.30;3.58;;;11.80;99.90;;;;;;5034957;28;20393;-81
2022/05/27 05:04:20;;;;;;;20.40;3.88;;;11.70;99.90;;;;;;5034911;28;20045;-82
2022/05/27 05:06:46;;;;;;;18.17;4.05;;;11.70;99.90;;;;;;5017132;28;20128;-81
2022/05/27 05:09:12;;;;;;;18.90;3.55;;;11.70;99.90;;;;;;5034251;28;20125;-81
2022/05/27 05:11:38;;;;;;;18.33;3.75;;;11.60;99.90;;;;;;5017464;28;20372;-82
2022/05/27 05:14:03;;;;;;;22.20;3.40;;;11.60;99.90;;;;;;5034820;28;20048;-81
2022/05/27 05:16:29;;;;;;;19.83;3.40;;;11.60;99.90;;;;;;5034865;28;20479;-82
2022/05/27 05:18:55;;;;;;;15.13;3.28;;;11.70;99.90;;;;;;5034772;28;20041;-83
2022/05/27 05:21:21;;;;;;;13.43;3.38;;;11.70;99.90;;;;;;5034908;28;20064;-81
2022/05/27 05:23:46;;;;;;;20.10;3.50;;;11.70;99.90;;;;;;5034789;28;20049;-81
2022/05/27 05:26:12;;;;;;;18.15;3.38;;;11.70;99.90;;;;;;5034659;28;20037;-82
2022/05/27 05:28:38;;;;;;;21.75;3.00;;;11.70;99.90;;;;;;5034646;28;20084;-81
2022/05/27 05:31:06;;;;;;;19.42;3.63;;;11.70;99.90;;;;;;5033309;28;20033;-82
2022/05/27 05:33:32;;;;;;;11.30;2.80;;;11.80;99.90;;;;;;5033714;28;20118;-81
2022/05/27 05:35:57;;;;;;;20.65;3.03;;;11.90;99.90;;;;;;5034873;28;20081;-82
2022/05/27 05:38:26;;;;;;;16.08;2.72;;;11.90;99.90;;;;;;5035990;28;20454;-81
2022/05/27 05:40:52;;;;;;;19.27;2.65;;;12.10;99.90;;;;;;5035270;28;20052;-81
2022/05/27 05:43:17;;;;;;;18.70;2.97;;;12.10;99.90;;;;;;5034565;28;20048;-81
2022/05/27 05:45:43;;;;;;;17.13;3.17;;;12.20;99.90;;;;;;5034436;28;20490;-82
2022/05/27 05:48:09;;;;;;;18.80;2.75;;;12.40;99.90;;;;;;5036334;28;20045;-86
2022/05/27 05:50:35;;;;;;;15.45;3.13;;;12.50;99.90;;;;;;5035880;28;20378;-84
2022/05/27 05:53:01;;;;;;;18.58;2.40;;;12.80;99.90;;;;;;5035792;28;20120;-80
2022/05/27 05:55:26;;;;;;;17.08;2.60;;;12.70;99.90;;;;;;5036174;28;20493;-82
2022/05/27 05:57:53;;;;;;;16.88;2.72;;;12.70;99.90;;;;;;5035370;28;20038;-80
2022/05/27 06:00:25;;;;;;;15.50;2.78;;;12.70;99.90;;;;;;5034954;28;20045;-81
2022/05/27 06:02:51;;;;;;;10.07;2.20;;;12.60;99.90;;;;;;5035103;28;20053;-81
2022/05/27 06:05:17;;;;;;;14.70;2.70;;;12.70;99.90;;;;;;5035041;28;20120;-81
2022/05/27 06:07:44;;;;;;;9.07;2.00;;;12.60;99.90;;;;;;5035053;28;20048;-81
2022/05/27 06:10:12;;;;;;;15.85;2.63;;;12.60;99.90;;;;;;5034129;28;20386;-82
2022/05/27 06:12:38;;;;;;;16.38;3.10;;;12.70;99.90;;;;;;5034276;28;20211;-81
2022/05/27 06:15:08;;;;;;;16.38;2.92;;;12.70;99.90;;;;;;5034384;28;20045;-81
2022/05/27 06:17:34;;;;;;;13.43;2.70;;;12.60;99.90;;;;;;5034857;28;20049;-81
2022/05/27 06:20:00;;;;;;;17.00;2.75;;;12.60;99.90;;;;;;5033439;28;20048;-82
2022/05/27 06:22:26;;;;;;;11.07;2.25;;;12.50;99.90;;;;;;5032385;28;20386;-86
2022/05/27 06:24:52;;;;;;;12.40;2.78;;;12.40;99.90;;;;;;5032700;28;20046;-82
2022/05/27 06:27:18;;;;;;;16.63;2.67;;;12.40;99.90;;;;;;5033431;28;20048;-82
2022/05/27 06:35:12;;;;;;;16.92;2.90;;;12.50;99.90;;;;;;5032527;28;20049;-82
2022/05/27 06:37:38;;;;;;;19.55;2.92;;;12.60;99.90;;;;;;5033460;28;20060;-82
2022/05/27 06:40:05;;;;;;;17.80;2.70;;;12.90;99.90;;;;;;5033396;28;20053;-81
2022/05/27 06:42:31;;;;;;;14.85;2.67;;;13.10;99.90;;;;;;5032942;28;20390;-83
2022/05/27 06:44:57;;;;;;;13.30;2.53;;;13.50;99.90;;;;;;5032368;28;20037;-82
2022/05/27 06:47:23;;;;;;;21.10;3.60;;;14.40;99.90;;;;;;5032376;28;20053;-82
2022/05/27 06:49:49;;;;;;;15.57;2.50;;;14.80;99.90;;;;;;5032867;28;20049;-83
2022/05/27 06:52:15;;;;;;;11.65;2.63;;;14.70;99.90;;;;;;5032865;28;20088;-82
2022/05/27 06:54:42;;;;;;;16.02;2.80;;;15.00;99.90;;;;;;5032920;28;20390;-83
2022/05/27 06:57:08;;;;;;;13.65;2.70;;;15.00;99.90;;;;;;5031921;28;20071;-83
2022/05/27 06:59:34;;;;;;;11.95;3.20;;;14.70;99.90;;;;;;5032663;28;20042;-84
2022/05/27 07:02:00;;;;;;;15.05;2.50;;;15.30;99.90;;;;;;5033147;28;20045;-84
2022/05/27 07:04:26;;;;;;;17.63;2.95;;;15.50;99.90;;;;;;5015406;28;20131;-83
2022/05/27 07:06:52;;;;;;;16.35;2.88;;;15.90;99.90;;;;;;5033068;28;20045;-84
2022/05/27 07:09:20;;;;;;;13.93;2.53;;;16.20;99.90;;;;;;5032774;28;20037;-83
2022/05/27 07:11:49;;;;;;;14.70;2.70;;;16.50;99.90;;;;;;5032777;28;20120;-85
2022/05/27 07:14:15;;;;;;;11.95;2.50;;;16.70;99.90;;;;;;5032578;28;20136;-85
2022/05/27 07:16:42;;;;;;;11.57;2.63;;;17.10;99.90;;;;;;5031955;28;20041;-83
2022/05/27 07:19:09;;;;;;;10.68;2.47;;;17.10;99.90;;;;;;5032550;28;20041;-82
2022/05/27 07:21:43;;;;;;;11.55;2.50;;;16.70;99.90;;;;;;5032822;28;20060;-83
2022/05/27 07:24:13;;;;;;;9.88;2.55;;;16.10;99.90;;;;;;5015422;28;20063;-82
2022/05/27 07:26:40;;;;;;;11.88;2.20;;;16.10;99.90;;;;;;5032319;28;20049;-83
2022/05/27 07:29:06;;;;;;;13.27;3.05;;;16.60;99.90;;;;;;5031450;28;20499;-83
2022/05/27 07:31:33;;;;;;;13.77;2.60;;;16.10;99.90;;;;;;5030772;28;20045;-83
2022/05/27 07:33:58;;;;;;;10.52;2.10;;;16.30;99.90;;;;;;5031661;28;20052;-82
2022/05/27 07:36:24;;;;;;;10.10;2.83;;;16.30;99.90;;;;;;5031754;28;20042;-85
2022/05/27 07:38:52;;;;;;;13.82;3.05;;;15.80;99.90;;;;;;5032451;28;20042;-83
2022/05/27 07:41:19;;;;;;;14.35;2.58;;;15.50;99.90;;;;;;5015123;28;20049;-87
2022/05/27 07:43:45;;;;;;;12.35;2.30;;;15.50;99.90;;;;;;5032619;28;20132;-82
2022/05/27 07:46:12;;;;;;;12.55;2.88;;;15.40;99.90;;;;;;5032476;28;20120;-83
2022/05/27 07:48:38;;;;;;;14.45;2.83;;;16.20;99.90;;;;;;5031334;28;20037;-83
2022/05/27 07:51:04;;;;;;;14.52;3.03;;;17.30;99.90;;;;;;5031409;28;20055;-83
2022/05/27 07:53:30;;;;;;;12.25;2.25;;;18.30;99.90;;;;;;5031408;28;20044;-84
2022/05/27 07:55:56;;;;;;;15.02;2.35;;;19.10;99.90;;;;;;5031170;28;20041;-89
2022/05/27 07:58:21;;;;;;;12.45;2.40;;;19.10;99.90;;;;;;5031155;28;20096;-85
2022/05/27 08:00:49;;;;;;;14.15;3.00;;;18.40;99.90;;;;;;5015598;28;20220;-85
2022/05/27 08:03:17;;;;;;;9.45;2.13;;;17.40;99.90;;;;;;5031535;28;20089;-85
2022/05/27 08:05:43;;;;;;;7.55;1.90;;;17.00;99.90;;;;;;5032310;28;20441;-84
2022/05/27 08:08:11;;;;;;;11.52;2.50;;;17.50;99.90;;;;;;5032113;28;20033;-85
2022/05/27 08:10:38;;;;;;;9.65;2.00;;;18.30;90.90;;;;;;5031176;28;20041;-84
2022/05/27 08:13:04;;;;;;;14.15;2.50;;;18.60;91.80;;;;;;5015752;28;20056;-83
2022/05/27 08:15:31;;;;;;;13.63;2.28;;;18.20;89.10;;;;;;5031305;28;20029;-83
2022/05/27 08:17:57;;;;;;;8.32;2.45;;;17.40;94.40;;;;;;5032532;28;20172;-85
2022/05/27 08:20:26;;;;;;;10.02;2.25;;;17.70;92.40;;;;;;5030862;28;20053;-82
2022/05/27 08:22:53;;;;;;;9.63;2.53;;;18.40;85.50;;;;;;5032141;28;20479;-83
2022/05/27 08:25:20;;;;;;;7.05;1.77;;;18.20;81.90;;;;;;5032204;28;20045;-83
2022/05/27 08:27:46;;;;;;;11.77;2.42;;;17.80;86.90;;;;;;5032293;28;20052;-85
2022/05/27 08:30:15;;;;;;;10.85;2.05;;;17.50;89.10;;;;;;5031922;28;20397;-83
2022/05/27 08:32:40;;;;;;;8.18;2.78;;;17.90;88.70;;;;;;5031190;28;20083;-83
2022/05/27 08:38:03;;;;;;;12.02;2.70;;;19.30;73.20;;;;;;5031832;28;20095;-85
2022/05/27 08:41:02;;;;;;;7.60;1.70;;;19.40;71.40;;;;;;5014662;28;20136;-84
2022/05/27 08:43:54;;;;;;;9.77;2.10;;;19.10;71.90;;;;;;5032624;28;20413;-85
2022/05/27 08:46:26;;;;;;;11.27;2.08;;;18.60;73.40;;;;;;5034361;28;20407;-85
2022/05/27 08:48:57;;;;;;;13.27;2.63;;;18.90;77.00;;;;;;5034473;28;20049;-85
2022/05/27 08:51:27;;;;;;;12.38;2.65;;;19.70;68.10;;;;;;5035425;28;20049;-85
2022/05/27 08:54:06;;;;;;;12.25;1.95;;;19.80;67.10;;;;;;5034805;28;20037;-86
2022/05/27 08:59:27;;;;;;;7.18;1.85;;;19.40;71.10;;;;;;5034343;28;20049;-84
2022/05/27 09:02:02;;;;;;;10.32;1.98;;;19.60;67.80;;;;;;5034419;28;20060;-83
2022/05/27 09:04:40;;;;;;;8.10;1.80;;;19.20;67.20;;;;;;5035314;28;20052;-85
2022/05/27 09:07:33;;;;;;;5.45;1.65;;;18.50;74.90;;;;;;5034992;28;20041;-84
2022/05/27 09:10:03;;;;;;;9.85;2.00;;;19.00;73.70;;;;;;5017989;28;20129;-84
2022/05/27 09:12:43;;;;;;;8.23;1.90;;;20.00;67.40;;;;;;5034057;28;20421;-88
2022/05/27 09:15:22;;;;;;;11.65;2.20;;;20.70;60.70;;;;;;5034024;28;20052;-84
2022/05/27 09:18:23;;;;;;;11.73;2.10;;;21.00;59.00;;;;;;5034130;28;20049;-84
2022/05/27 09:21:25;;;;;;;8.75;1.80;;;20.10;64.30;;;;;;5034135;28;20049;-84
2022/05/27 09:24:14;;;;;;;6.25;1.70;;;19.40;65.80;;;;;;5038834;28;20056;-84
2022/05/27 09:26:54;;;;;;;8.85;2.03;;;18.40;77.60;;;;;;5036767;28;20128;-84
2022/05/27 09:29:45;;;;;;;8.00;1.83;;;18.30;81.70;;;;;;5034335;28;20490;-82
2022/05/27 09:32:26;;;;;;;9.60;1.83;;;18.70;79.60;;;;;;5035700;28;20367;-86
2022/05/27 09:34:55;;;;;;;7.28;1.50;;;19.50;64.20;;;;;;5034906;28;20041;-85
2022/05/27 09:37:31;;;;;;;8.15;1.70;;;20.40;63.60;;;;;;5018226;28;20045;-86
2022/05/27 09:40:02;;;;;;;8.27;1.80;;;21.20;57.80;;;;;;5036139;28;20124;-87
2022/05/27 09:42:44;;;;;;;8.63;1.85;;;22.10;56.50;;;;;;5018244;28;20044;-84
2022/05/27 09:45:11;;;;;;;6.70;1.50;;;22.00;56.10;;;;;;5035853;28;20051;-87
2022/05/27 09:47:40;;;;;;;10.57;1.70;;;21.20;57.80;;;;;;5035806;28;20052;-83
2022/05/27 09:50:24;;;;;;;8.45;1.80;;;20.30;60.60;;;;;;5034624;28;20045;-85
2022/05/27 09:52:53;;;;;;;10.38;2.10;;;20.30;59.30;;;;;;5017896;28;20049;-85
2022/05/27 09:55:31;;;;;;;6.82;1.77;;;20.10;60.20;;;;;;5034943;28;20045;-88
2022/05/27 09:58:10;;;;;;;10.63;1.95;;;19.80;61.10;;;;;;5016864;28;20042;-87
2022/05/27 10:00:46;;;;;;;6.53;1.50;;;19.80;62.60;;;;;;5034047;28;20108;-84
2022/05/27 10:03:36;;;;;;;8.73;1.75;;;20.60;61.10;;;;;;5018169;28;20060;-86
2022/05/27 10:06:02;;;;;;;;;;;20.90;58.60;;;;;;5034044;28;20095;-86
2022/05/27 10:08:53;;;;;;;9.50;2.10;;;21.00;55.30;;;;;;5016347;28;19921;-85
2022/05/27 10:11:34;;;;;;;11.27;2.15;;;21.20;58.30;;;;;;5016514;28;20038;-86
2022/05/27 10:14:10;;;;;;;6.30;1.63;;;21.90;56.00;;;;;;5033909;28;20037;-88
2022/05/27 10:16:39;;;;;;;7.82;1.90;;;21.70;54.30;;;;;;5016445;28;20048;-84
2022/05/27 10:19:22;;;;;;;9.43;2.15;;;20.60;57.10;;;;;;5033942;28;20120;-88
2022/05/27 10:21:49;;;;;;;7.97;2.08;;;20.90;58.60;;;;;;5033601;28;20140;-84
2022/05/27 10:24:40;;;;;;;10.65;1.98;;;21.70;55.90;;;;;;5033608;28;20041;-85
2022/05/27 10:27:22;;;;;;;8.60;2.22;;;22.80;51.30;;;;;;5032262;28;20088;-85
2022/05/27 10:29:49;;;;;;;8.77;1.88;;;23.30;50.40;;;;;;5033584;28;20045;-85
2022/05/27 10:32:33;;;;;;;7.40;1.90;;;23.40;51.50;;;;;;5032388;28;20124;-87
2022/05/27 10:35:06;;;;;;;10.70;2.45;;;23.80;48.20;;;;;;5016274;28;20360;-86
2022/05/27 10:37:52;;;;;;;6.93;1.63;;;24.00;49.30;;;;;;5033168;28;20052;-84
2022/05/27 10:40:24;;;;;;;6.95;1.75;;;23.40;49.10;;;;;;5032433;28;20119;-86
2022/05/27 10:43:24;;;;;;;8.35;2.03;;;23.10;50.60;;;;;;5032372;28;20049;-88
2022/05/27 10:45:54;;;;;;;11.80;2.17;;;22.70;49.90;;;;;;5015918;28;20095;-84
2022/05/27 10:48:37;;;;;;;11.38;2.08;;;21.40;53.30;;;;;;5015628;28;20049;-87
2022/05/27 10:51:20;;;;;;;11.80;2.33;;;20.40;58.20;;;;;;5031878;28;20133;-85
2022/05/27 10:54:40;;;;;;;6.00;1.80;;;20.30;59.80;;;;;;5031917;28;20131;-85
2022/05/27 11:03:14;;;;;;;9.20;1.70;;;23.50;51.80;;;;;;5014343;28;20396;-87
2022/05/27 11:05:45;;;;;;;7.45;1.88;;;23.80;50.20;;;;;;4997239;28;20483;-85
2022/05/27 11:08:28;;;;;;;8.48;1.67;;;23.50;49.80;;;;;;5030351;28;20060;-86
2022/05/27 11:11:00;;;;;;;9.95;1.92;;;23.50;48.50;;;;;;5014672;28;20057;-84
2022/05/27 11:16:33;;;;;;;10.25;1.90;;;22.00;51.50;;;;;;5014419;28;20056;-88
2022/05/27 11:19:11;;;;;;;7.22;2.00;;;21.10;53.00;;;;;;4997761;28;20049;-85
2022/05/27 11:21:48;;;;;;;12.43;2.00;;;20.00;55.80;;;;;;4997249;28;20060;-83
2022/05/27 11:24:52;;;;;;;10.98;2.10;;;20.10;60.30;;;;;;4997668;28;20053;-84
2022/05/27 11:27:20;;;;;;;12.60;2.40;;;21.60;56.50;;;;;;4971826;28;20202;-85
2022/05/27 11:30:19;;;;;;;9.48;2.20;;;22.80;53.40;;;;;;4971664;28;20515;-85
2022/05/27 11:32:58;;;;;;;7.82;1.77;;;23.30;49.60;;;;;;4955752;28;20054;-89
2022/05/27 11:35:40;;;;;;;8.85;2.03;;;23.70;48.50;;;;;;4971729;28;20047;-84
2022/05/27 11:38:20;;;;;;;10.25;2.28;;;23.80;48.30;;;;;;4955581;28;20050;-87
2022/05/27 11:41:12;;;;;;;6.93;2.40;;;23.40;48.60;;;;;;4939226;28;20744;-84
2022/05/27 11:43:45;;;;;;;8.82;2.20;;;21.80;51.60;;;;;;4971619;28;20058;-85
2022/05/27 11:46:25;;;;;;;10.32;2.10;;;20.50;55.30;;;;;;4955372;28;20548;-85
2022/05/27 11:48:56;;;;;;;10.37;2.23;;;19.60;58.20;;;;;;4954993;28;20093;-87
2022/05/27 11:51:29;;;;;;;;;;;19.60;59.40;;;;;;4971816;28;20047;-85
2022/05/27 11:54:14;;;;;;;13.48;2.35;;;20.20;57.70;;;;;;4939672;28;19918;-87
2022/05/27 11:57:17;;;;;;;12.73;2.05;;;21.20;56.70;;;;;;4955199;28;20501;-84
2022/05/27 11:59:49;;;;;;;10.65;2.25;;;22.70;53.40;;;;;;4955215;28;20035;-84
2022/05/27 12:02:53;;;;;;;14.07;2.13;;;23.70;50.80;;;;;;4985475;28;20065;-84
2022/05/27 12:05:23;;;;;;;10.13;2.13;;;24.30;47.80;;;;;;5013731;28;20060;-84
2022/05/27 12:08:07;;;;;;;11.38;2.35;;;24.90;48.10;;;;;;4997480;28;20061;-85
2022/05/27 12:10:49;;;;;;;9.48;1.90;;;24.20;44.50;;;;;;5013832;28;20057;-84
2022/05/27 12:13:27;;;;;;;11.35;2.28;;;22.40;48.80;;;;;;4998646;28;20044;-84
2022/05/27 12:15:57;;;;;;;10.32;2.17;;;21.00;52.60;;;;;;5030500;28;20049;-84
2022/05/27 12:18:32;;;;;;;14.10;2.00;;;20.30;55.60;;;;;;4984343;28;20045;-82
2022/05/27 12:21:01;;;;;;;8.57;2.22;;;20.40;58.40;;;;;;5017514;28;20088;-83
2022/05/27 12:23:28;;;;;;;12.55;2.20;;;20.40;59.70;;;;;;5033684;28;20049;-84
2022/05/27 12:25:59;;;;;;;9.07;2.08;;;20.30;57.30;;;;;;5017321;28;20506;-85
2022/05/27 12:28:36;;;;;;;9.63;2.08;;;20.00;56.80;;;;;;5017286;28;20048;-83
2022/05/27 12:31:04;;;;;;;8.93;1.95;;;19.50;57.90;;;;;;5033659;28;20569;-85
2022/05/27 12:33:36;;;;;;;9.38;2.03;;;19.20;59.60;;;;;;5033731;28;20098;-85
2022/05/27 12:36:26;;;;;;;12.10;2.03;;;18.70;62.90;;;;;;5017000;28;20502;-84
2022/05/27 12:38:54;;;;;;;14.70;2.40;;;19.40;63.90;;;;;;4942372;28;20158;-82
2022/05/27 12:41:37;;;;;;;10.73;2.38;;;20.00;59.90;;;;;;4974377;28;20512;-84
2022/05/27 12:44:25;;;;;;;12.32;2.85;;;19.80;58.90;;;;;;4942501;28;20057;-84
2022/05/27 12:46:57;;;;;;;11.48;2.22;;;19.10;61.70;;;;;;4974646;28;20129;-84
2022/05/27 12:49:37;;;;;;;12.50;2.40;;;18.60;65.60;;;;;;4974549;28;20057;-83
2022/05/27 12:52:28;;;;;;;19.27;3.03;;;18.10;67.70;;;;;;4974350;28;20047;-83
2022/05/27 12:54:54;;;;;;;9.45;2.03;;;17.60;74.50;;;;;;4958410;28;20455;-83
2022/05/27 13:03:30;;;;;;;10.77;2.38;;;18.20;71.60;;;;;;4958785;28;20049;-84
2022/05/27 13:06:14;;;;;;;13.25;2.90;;;18.10;72.80;;;;;;4958985;28;20082;-85
2022/05/27 13:09:01;;;;;;;10.63;2.45;;;18.00;75.80;;;;;;4975140;28;20046;-82
2022/05/27 13:11:37;;;;;;;16.10;2.90;;;18.20;76.30;;;;;;4959881;28;20093;-83
2022/05/27 13:14:05;;;;;;;9.80;2.05;;;17.90;76.40;;;;;;4974969;28;20141;-83
2022/05/27 13:16:50;;;;;;;14.50;2.55;;;17.70;80.80;;;;;;5016394;28;20049;-84
2022/05/27 13:19:26;;;;;;;12.30;2.20;;;17.80;77.80;;;;;;5035306;28;20099;-83
2022/05/27 13:21:52;;;;;;;15.32;2.67;;;17.70;78.00;;;;;;5035959;28;20124;-84
2022/05/27 13:24:17;;;;;;;12.73;2.58;;;17.30;85.60;;;;;;5035395;28;20046;-83
2022/05/27 13:26:51;;;;;;;12.35;2.33;;;17.10;91.90;;;;;;5018832;28;20367;-86
2022/05/27 13:29:25;;;;;;;13.65;2.88;;;17.80;85.20;;;;;;5035018;28;20124;-89
2022/05/27 13:31:57;;;;;;;15.18;2.50;;;17.90;83.20;;;;;;5035275;28;20451;-84
2022/05/27 13:34:39;;;;;;;13.63;2.50;;;17.70;84.10;;;;;;5017427;28;20037;-83
2022/05/27 13:37:12;;;;;;;12.60;2.30;;;17.40;85.90;;;;;;5033811;28;20081;-84
2022/05/27 13:39:51;;;;;;;10.15;2.10;;;17.20;90.70;;;;;;5034530;28;20044;-86
2022/05/27 13:42:27;;;;;;;12.27;2.10;;;16.90;77.00;;;;;;5016986;28;20094;-85